sensor_id;sensor_type;location;lat;lon;timestamp;pressure;altitude;pressure_sealevel;temperature;humidity
58761;BME280;44529;47.464;19.014;2022-11-15T00:02:36;100754.22;;;5.62;100.00
58761;BME280;44529;47.464;19.014;2022-11-15T00:06:01;100749.66;;;5.62;100.00
58761;BME280;44529;47.464;19.014;2022-11-15T00:09:22;100746.72;;;5.69;100.00
58761;BME280;44529;47.464;19.014;2022-11-15T00:12:43;100754.50;;;5.65;100.00
58761;BME280;44529;47.464;19.014;2022-11-15T00:16:03;100761.47;;;5.56;100.00
58761;BME280;44529;47.464;19.014;2022-11-15T00:19:25;100758.75;;;5.46;100.00
58761;BME280;44529;47.464;19.014;2022-11-15T00:22:45;100760.41;;;5.62;100.00
58761;BME280;44529;47.464;19.014;2022-11-15T00:26:06;100751.28;;;5.63;100.00
58761;BME280;44529;47.464;19.014;2022-11-15T00:29:27;100747.78;;;5.58;100.00
58761;BME280;44529;47.464;19.014;2022-11-15T00:32:48;100744.84;;;5.54;100.00
58761;BME280;44529;47.464;19.014;2022-11-15T00:36:09;100744.28;;;5.52;100.00
58761;BME280;44529;47.464;19.014;2022-11-15T00:39:31;100735.97;;;5.54;100.00
58761;BME280;44529;47.464;19.014;2022-11-15T00:42:51;100729.81;;;5.63;100.00
58761;BME280;44529;47.464;19.014;2022-11-15T00:46:12;100730.34;;;5.50;100.00
58761;BME280;44529;47.464;19.014;2022-11-15T00:49:33;100734.63;;;5.56;100.00
58761;BME280;44529;47.464;19.014;2022-11-15T00:52:53;100727.66;;;5.65;100.00
58761;BME280;44529;47.464;19.014;2022-11-15T00:56:14;100734.09;;;5.64;100.00
58761;BME280;44529;47.464;19.014;2022-11-15T00:59:34;100744.03;;;5.69;100.00
58761;BME280;44529;47.464;19.014;2022-11-15T01:02:55;100728.75;;;5.64;100.00
58761;BME280;44529;47.464;19.014;2022-11-15T01:06:15;100728.75;;;5.69;100.00
58761;BME280;44529;47.464;19.014;2022-11-15T01:09:36;100725.53;;;5.67;100.00
58761;BME280;44529;47.464;19.014;2022-11-15T01:12:57;100726.88;;;5.65;100.00
58761;BME280;44529;47.464;19.014;2022-11-15T01:16:18;100715.88;;;5.61;100.00
58761;BME280;44529;47.464;19.014;2022-11-15T01:19:38;100710.78;;;5.70;100.00
58761;BME280;44529;47.464;19.014;2022-11-15T01:22:59;100705.94;;;5.62;100.00
58761;BME280;44529;47.464;19.014;2022-11-15T01:26:20;100705.16;;;5.61;100.00
58761;BME280;44529;47.464;19.014;2022-11-15T01:29:41;100701.41;;;5.67;100.00
58761;BME280;44529;47.464;19.014;2022-11-15T01:33:01;100695.75;;;5.64;100.00
58761;BME280;44529;47.464;19.014;2022-11-15T01:36:22;100694.41;;;5.66;100.00
58761;BME280;44529;47.464;19.014;2022-11-15T01:39:43;100691.47;;;5.78;100.00
58761;BME280;44529;47.464;19.014;2022-11-15T01:43:24;100692.53;;;5.77;100.00
58761;BME280;44529;47.464;19.014;2022-11-15T01:46:47;100693.34;;;5.83;100.00
58761;BME280;44529;47.464;19.014;2022-11-15T01:50:10;100692.00;;;5.80;100.00
58761;BME280;44529;47.464;19.014;2022-11-15T01:53:33;100687.44;;;5.81;100.00
58761;BME280;44529;47.464;19.014;2022-11-15T01:57:09;100681.53;;;5.84;100.00
58761;BME280;44529;47.464;19.014;2022-11-15T02:00:31;100683.97;;;5.80;100.00
58761;BME280;44529;47.464;19.014;2022-11-15T02:03:57;100683.44;;;5.93;100.00
58761;BME280;44529;47.464;19.014;2022-11-15T02:07:19;100679.94;;;6.03;100.00
58761;BME280;44529;47.464;19.014;2022-11-15T02:10:41;100682.09;;;5.96;100.00
58761;BME280;44529;47.464;19.014;2022-11-15T02:14:02;100674.84;;;5.96;100.00
58761;BME280;44529;47.464;19.014;2022-11-15T02:17:31;100668.69;;;5.96;100.00
58761;BME280;44529;47.464;19.014;2022-11-15T02:24:50;100654.16;;;5.97;100.00
58761;BME280;44529;47.464;19.014;2022-11-15T02:28:26;100652.56;;;6.01;100.00
58761;BME280;44529;47.464;19.014;2022-11-15T02:35:20;100654.44;;;6.01;100.00
58761;BME280;44529;47.464;19.014;2022-11-15T02:38:51;100652.00;;;6.04;100.00
58761;BME280;44529;47.464;19.014;2022-11-15T02:42:17;100645.56;;;6.15;100.00
58761;BME280;44529;47.464;19.014;2022-11-15T02:46:06;100649.88;;;6.06;100.00
58761;BME280;44529;47.464;19.014;2022-11-15T02:49:31;100637.78;;;6.04;100.00
58761;BME280;44529;47.464;19.014;2022-11-15T02:52:53;100655.78;;;6.08;100.00
58761;BME280;44529;47.464;19.014;2022-11-15T02:56:14;100649.38;;;5.99;100.00
58761;BME280;44529;47.464;19.014;2022-11-15T02:59:47;100649.59;;;6.08;100.00
58761;BME280;44529;47.464;19.014;2022-11-15T03:03:30;100658.75;;;6.02;100.00
58761;BME280;44529;47.464;19.014;2022-11-15T03:07:10;100654.16;;;6.07;100.00
58761;BME280;44529;47.464;19.014;2022-11-15T03:10:42;100652.28;;;6.13;100.00
58761;BME280;44529;47.464;19.014;2022-11-15T03:14:22;100648.47;;;6.24;100.00
58761;BME280;44529;47.464;19.014;2022-11-15T03:21:21;100641.50;;;6.23;100.00
58761;BME280;44529;47.464;19.014;2022-11-15T03:24:43;100636.13;;;6.23;100.00
58761;BME280;44529;47.464;19.014;2022-11-15T03:28:06;100641.78;;;6.16;100.00
58761;BME280;44529;47.464;19.014;2022-11-15T03:31:32;100632.41;;;6.14;100.00
58761;BME280;44529;47.464;19.014;2022-11-15T03:35:33;100633.22;;;6.14;100.00
58761;BME280;44529;47.464;19.014;2022-11-15T03:39:01;100620.31;;;6.16;100.00
58761;BME280;44529;47.464;19.014;2022-11-15T03:42:30;100623.28;;;6.05;100.00
58761;BME280;44529;47.464;19.014;2022-11-15T03:45:58;100623.28;;;6.10;100.00
58761;BME280;44529;47.464;19.014;2022-11-15T03:49:28;100618.69;;;6.20;100.00
58761;BME280;44529;47.464;19.014;2022-11-15T03:52:50;100617.63;;;6.16;100.00
58761;BME280;44529;47.464;19.014;2022-11-15T03:56:11;100602.59;;;6.15;100.00
58761;BME280;44529;47.464;19.014;2022-11-15T03:59:31;100593.16;;;6.33;100.00
58761;BME280;44529;47.464;19.014;2022-11-15T04:02:52;100584.81;;;6.35;100.00
58761;BME280;44529;47.464;19.014;2022-11-15T04:06:13;100585.87;;;6.39;100.00
58761;BME280;44529;47.464;19.014;2022-11-15T04:09:34;100594.19;;;6.37;100.00
58761;BME280;44529;47.464;19.014;2022-11-15T04:13:14;100588.53;;;6.44;100.00
58761;BME280;44529;47.464;19.014;2022-11-15T04:16:35;100579.16;;;6.41;100.00
58761;BME280;44529;47.464;19.014;2022-11-15T04:20:05;100596.06;;;6.42;100.00
58761;BME280;44529;47.464;19.014;2022-11-15T04:23:44;100591.78;;;6.41;100.00
58761;BME280;44529;47.464;19.014;2022-11-15T04:27:24;100587.78;;;6.33;100.00
58761;BME280;44529;47.464;19.014;2022-11-15T04:30:45;100599.06;;;6.30;100.00
58761;BME280;44529;47.464;19.014;2022-11-15T04:34:05;100600.41;;;6.28;100.00
58761;BME280;44529;47.464;19.014;2022-11-15T04:37:26;100593.94;;;6.34;100.00
58761;BME280;44529;47.464;19.014;2022-11-15T04:40:46;100580.53;;;6.29;100.00
58761;BME280;44529;47.464;19.014;2022-11-15T04:44:07;100580.03;;;6.21;100.00
58761;BME280;44529;47.464;19.014;2022-11-15T04:47:28;100578.41;;;6.26;100.00
58761;BME280;44529;47.464;19.014;2022-11-15T04:50:49;100570.06;;;6.27;100.00
58761;BME280;44529;47.464;19.014;2022-11-15T04:54:10;100558.25;;;6.33;100.00
58761;BME280;44529;47.464;19.014;2022-11-15T04:57:31;100558.78;;;6.30;100.00
58761;BME280;44529;47.464;19.014;2022-11-15T05:00:51;100556.84;;;6.41;100.00
58761;BME280;44529;47.464;19.014;2022-11-15T05:04:12;100563.31;;;6.35;100.00
58761;BME280;44529;47.464;19.014;2022-11-15T05:07:42;100560.62;;;6.40;100.00
58761;BME280;44529;47.464;19.014;2022-11-15T05:11:03;100559.28;;;6.37;100.00
58761;BME280;44529;47.464;19.014;2022-11-15T05:14:23;100565.44;;;6.43;100.00
58761;BME280;44529;47.464;19.014;2022-11-15T05:17:44;100567.81;;;6.49;100.00
58761;BME280;44529;47.464;19.014;2022-11-15T05:21:06;100574.00;;;6.50;100.00
58761;BME280;44529;47.464;19.014;2022-11-15T05:24:26;100563.78;;;6.52;100.00
58761;BME280;44529;47.464;19.014;2022-11-15T05:27:47;100576.13;;;6.58;100.00
58761;BME280;44529;47.464;19.014;2022-11-15T05:31:13;100572.37;;;6.54;100.00
58761;BME280;44529;47.464;19.014;2022-11-15T05:34:34;100567.59;;;6.46;100.00
58761;BME280;44529;47.464;19.014;2022-11-15T05:37:56;100563.81;;;6.47;100.00
58761;BME280;44529;47.464;19.014;2022-11-15T05:41:18;100566.72;;;6.56;100.00
58761;BME280;44529;47.464;19.014;2022-11-15T05:44:46;100559.41;;;6.66;100.00
58761;BME280;44529;47.464;19.014;2022-11-15T05:48:08;100559.84;;;6.84;100.00
58761;BME280;44529;47.464;19.014;2022-11-15T05:51:30;100562.53;;;6.84;99.25
58761;BME280;44529;47.464;19.014;2022-11-15T05:54:51;100557.97;;;6.84;98.71
58761;BME280;44529;47.464;19.014;2022-11-15T05:58:13;100560.41;;;6.81;100.00
58761;BME280;44529;47.464;19.014;2022-11-15T06:01:34;100560.44;;;6.75;100.00
58761;BME280;44529;47.464;19.014;2022-11-15T06:04:55;100564.19;;;6.74;100.00
58761;BME280;44529;47.464;19.014;2022-11-15T06:08:15;100554.25;;;6.75;100.00
58761;BME280;44529;47.464;19.014;2022-11-15T06:11:36;100548.84;;;6.80;100.00
58761;BME280;44529;47.464;19.014;2022-11-15T06:14:56;100528.66;;;6.83;100.00
58761;BME280;44529;47.464;19.014;2022-11-15T06:18:16;100542.16;;;6.77;100.00
58761;BME280;44529;47.464;19.014;2022-11-15T06:21:37;100547.00;;;6.75;100.00
58761;BME280;44529;47.464;19.014;2022-11-15T06:24:58;100545.87;;;6.82;100.00
58761;BME280;44529;47.464;19.014;2022-11-15T06:28:27;100552.78;;;6.93;100.00
58761;BME280;44529;47.464;19.014;2022-11-15T06:31:48;100557.66;;;6.91;100.00
58761;BME280;44529;47.464;19.014;2022-11-15T06:35:09;100562.50;;;6.89;100.00
58761;BME280;44529;47.464;19.014;2022-11-15T06:38:30;100557.84;;;6.99;100.00
58761;BME280;44529;47.464;19.014;2022-11-15T06:41:51;100549.09;;;6.84;100.00
58761;BME280;44529;47.464;19.014;2022-11-15T06:45:11;100546.63;;;6.92;100.00
58761;BME280;44529;47.464;19.014;2022-11-15T06:48:33;100568.09;;;6.97;100.00
58761;BME280;44529;47.464;19.014;2022-11-15T06:51:54;100567.88;;;6.89;100.00
58761;BME280;44529;47.464;19.014;2022-11-15T06:55:15;100557.56;;;7.01;100.00
58761;BME280;44529;47.464;19.014;2022-11-15T06:58:36;100557.53;;;7.06;100.00
58761;BME280;44529;47.464;19.014;2022-11-15T07:01:57;100552.75;;;7.03;100.00
58761;BME280;44529;47.464;19.014;2022-11-15T07:05:18;100563.72;;;7.06;100.00
58761;BME280;44529;47.464;19.014;2022-11-15T07:08:38;100564.81;;;7.05;100.00
58761;BME280;44529;47.464;19.014;2022-11-15T07:11:59;100548.69;;;7.05;100.00
58761;BME280;44529;47.464;19.014;2022-11-15T07:15:26;100550.50;;;7.15;100.00
58761;BME280;44529;47.464;19.014;2022-11-15T07:18:47;100545.81;;;7.26;100.00
58761;BME280;44529;47.464;19.014;2022-11-15T07:22:08;100547.72;;;7.25;100.00
58761;BME280;44529;47.464;19.014;2022-11-15T07:25:28;100535.28;;;7.35;100.00
58761;BME280;44529;47.464;19.014;2022-11-15T07:28:49;100535.22;;;7.40;100.00
58761;BME280;44529;47.464;19.014;2022-11-15T07:32:10;100535.75;;;7.42;100.00
58761;BME280;44529;47.464;19.014;2022-11-15T07:35:30;100537.97;;;7.35;100.00
58761;BME280;44529;47.464;19.014;2022-11-15T07:38:51;100538.94;;;7.44;100.00
58761;BME280;44529;47.464;19.014;2022-11-15T07:42:12;100536.44;;;7.52;100.00
58761;BME280;44529;47.464;19.014;2022-11-15T07:45:51;100526.25;;;7.49;100.00
58761;BME280;44529;47.464;19.014;2022-11-15T07:49:18;100534.88;;;7.46;100.00
58761;BME280;44529;47.464;19.014;2022-11-15T07:52:39;100527.09;;;7.45;100.00
58761;BME280;44529;47.464;19.014;2022-11-15T07:55:59;100539.75;;;7.44;100.00
58761;BME280;44529;47.464;19.014;2022-11-15T07:59:20;100556.19;;;7.43;100.00
58761;BME280;44529;47.464;19.014;2022-11-15T08:02:41;100539.94;;;7.53;100.00
58761;BME280;44529;47.464;19.014;2022-11-15T08:06:03;100536.31;;;7.68;100.00
58761;BME280;44529;47.464;19.014;2022-11-15T08:09:24;100520.50;;;7.61;100.00
58761;BME280;44529;47.464;19.014;2022-11-15T08:12:45;100524.59;;;7.53;100.00
58761;BME280;44529;47.464;19.014;2022-11-15T08:16:08;100526.97;;;7.60;100.00
58761;BME280;44529;47.464;19.014;2022-11-15T08:19:33;100522.38;;;7.60;100.00
58761;BME280;44529;47.464;19.014;2022-11-15T08:22:53;100522.44;;;7.55;100.00
58761;BME280;44529;47.464;19.014;2022-11-15T08:26:14;100499.47;;;7.63;100.00
58761;BME280;44529;47.464;19.014;2022-11-15T08:29:35;100502.00;;;7.78;100.00
58761;BME280;44529;47.464;19.014;2022-11-15T08:32:57;100495.34;;;7.71;100.00
58761;BME280;44529;47.464;19.014;2022-11-15T08:36:18;100494.03;;;7.68;100.00
58761;BME280;44529;47.464;19.014;2022-11-15T08:39:39;100512.94;;;7.63;100.00
58761;BME280;44529;47.464;19.014;2022-11-15T08:43:00;100499.97;;;7.65;100.00
58761;BME280;44529;47.464;19.014;2022-11-15T08:46:23;100496.69;;;7.73;100.00
58761;BME280;44529;47.464;19.014;2022-11-15T08:49:44;100490.25;;;7.69;100.00
58761;BME280;44529;47.464;19.014;2022-11-15T08:53:08;100483.78;;;7.70;100.00
58761;BME280;44529;47.464;19.014;2022-11-15T08:56:29;100478.59;;;7.55;100.00
58761;BME280;44529;47.464;19.014;2022-11-15T08:59:50;100477.16;;;7.63;100.00
58761;BME280;44529;47.464;19.014;2022-11-15T09:03:10;100472.69;;;7.77;100.00
58761;BME280;44529;47.464;19.014;2022-11-15T09:06:31;100476.16;;;7.77;100.00
58761;BME280;44529;47.464;19.014;2022-11-15T09:09:51;100475.81;;;7.84;100.00
58761;BME280;44529;47.464;19.014;2022-11-15T09:13:12;100476.56;;;7.66;100.00
58761;BME280;44529;47.464;19.014;2022-11-15T09:16:34;100461.69;;;7.73;100.00
58761;BME280;44529;47.464;19.014;2022-11-15T09:19:55;100453.06;;;7.95;100.00
58761;BME280;44529;47.464;19.014;2022-11-15T09:23:15;100453.66;;;8.11;100.00
58761;BME280;44529;47.464;19.014;2022-11-15T09:26:39;100453.66;;;8.11;100.00
58761;BME280;44529;47.464;19.014;2022-11-15T09:30:00;100452.88;;;8.10;100.00
58761;BME280;44529;47.464;19.014;2022-11-15T09:33:20;100453.41;;;8.12;100.00
58761;BME280;44529;47.464;19.014;2022-11-15T09:36:41;100454.50;;;8.11;100.00
58761;BME280;44529;47.464;19.014;2022-11-15T09:40:02;100452.72;;;8.02;100.00
58761;BME280;44529;47.464;19.014;2022-11-15T09:43:37;100445.16;;;8.04;100.00
58761;BME280;44529;47.464;19.014;2022-11-15T09:47:16;100452.59;;;8.12;100.00
58761;BME280;44529;47.464;19.014;2022-11-15T09:50:38;100449.69;;;8.08;100.00
58761;BME280;44529;47.464;19.014;2022-11-15T09:57:42;100440.72;;;8.13;100.00
58761;BME280;44529;47.464;19.014;2022-11-15T10:00:48;100443.38;;;8.18;100.00
58761;BME280;44529;47.464;19.014;2022-11-15T10:03:56;100442.78;;;8.21;100.00
58761;BME280;44529;47.464;19.014;2022-11-15T10:07:13;100434.63;;;8.26;100.00
58761;BME280;44529;47.464;19.014;2022-11-15T10:13:33;100427.22;;;8.18;100.00
58761;BME280;44529;47.464;19.014;2022-11-15T10:20:05;100413.63;;;8.23;100.00
58761;BME280;44529;47.464;19.014;2022-11-15T10:23:13;100405.28;;;8.25;100.00
58761;BME280;44529;47.464;19.014;2022-11-15T10:26:16;100403.75;;;8.19;100.00
58761;BME280;44529;47.464;19.014;2022-11-15T10:29:20;100412.63;;;8.19;100.00
58761;BME280;44529;47.464;19.014;2022-11-15T10:32:28;100408.34;;;8.18;100.00
58761;BME280;44529;47.464;19.014;2022-11-15T10:35:32;100393.84;;;8.14;100.00
58761;BME280;44529;47.464;19.014;2022-11-15T10:41:51;100383.81;;;8.20;100.00
58761;BME280;44529;47.464;19.014;2022-11-15T10:44:54;100379.28;;;8.15;100.00
58761;BME280;44529;47.464;19.014;2022-11-15T10:51:27;100380.53;;;8.23;100.00
58761;BME280;44529;47.464;19.014;2022-11-15T10:57:39;100368.06;;;8.27;100.00
58761;BME280;44529;47.464;19.014;2022-11-15T11:00:42;100359.06;;;8.36;100.00
58761;BME280;44529;47.464;19.014;2022-11-15T11:03:57;100352.59;;;8.37;100.00
58761;BME280;44529;47.464;19.014;2022-11-15T11:07:01;100348.81;;;8.38;100.00
58761;BME280;44529;47.464;19.014;2022-11-15T11:10:17;100340.28;;;8.31;100.00
58761;BME280;44529;47.464;19.014;2022-11-15T11:13:40;100340.28;;;8.31;100.00
58761;BME280;44529;47.464;19.014;2022-11-15T11:16:49;100336.47;;;8.32;100.00
58761;BME280;44529;47.464;19.014;2022-11-15T11:26:18;100328.41;;;8.32;100.00
58761;BME280;44529;47.464;19.014;2022-11-15T11:29:49;100332.25;;;8.26;100.00
58761;BME280;44529;47.464;19.014;2022-11-15T11:33:03;100321.69;;;8.30;100.00
58761;BME280;44529;47.464;19.014;2022-11-15T11:36:21;100319.97;;;8.20;100.00
58761;BME280;44529;47.464;19.014;2022-11-15T11:39:55;100310.50;;;8.04;100.00
58761;BME280;44529;47.464;19.014;2022-11-15T11:43:28;100325.66;;;8.00;100.00
58761;BME280;44529;47.464;19.014;2022-11-15T11:46:53;100317.41;;;8.10;100.00
58761;BME280;44529;47.464;19.014;2022-11-15T11:50:05;100306.81;;;8.00;100.00
58761;BME280;44529;47.464;19.014;2022-11-15T11:53:30;100299.25;;;8.02;100.00
58761;BME280;44529;47.464;19.014;2022-11-15T11:56:34;100308.41;;;8.01;100.00
58761;BME280;44529;47.464;19.014;2022-11-15T11:59:43;100298.94;;;8.03;100.00
58761;BME280;44529;47.464;19.014;2022-11-15T12:09:24;100277.28;;;7.95;100.00
58761;BME280;44529;47.464;19.014;2022-11-15T12:15:44;100266.69;;;7.98;100.00
58761;BME280;44529;47.464;19.014;2022-11-15T12:18:50;100267.00;;;7.97;100.00
58761;BME280;44529;47.464;19.014;2022-11-15T12:22:05;100265.72;;;7.94;100.00
58761;BME280;44529;47.464;19.014;2022-11-15T12:25:19;100263.50;;;7.96;100.00
58761;BME280;44529;47.464;19.014;2022-11-15T12:31:45;100256.91;;;7.88;100.00
58761;BME280;44529;47.464;19.014;2022-11-15T12:34:50;100257.69;;;7.89;100.00
58761;BME280;44529;47.464;19.014;2022-11-15T12:37:55;100248.81;;;7.88;100.00
58761;BME280;44529;47.464;19.014;2022-11-15T12:41:15;100229.75;;;7.85;100.00
58761;BME280;44529;47.464;19.014;2022-11-15T12:47:33;100237.34;;;7.83;100.00
58761;BME280;44529;47.464;19.014;2022-11-15T12:53:56;100220.25;;;7.93;100.00
58761;BME280;44529;47.464;19.014;2022-11-15T13:03:23;100215.59;;;7.79;100.00
58761;BME280;44529;47.464;19.014;2022-11-15T13:06:47;100223.16;;;7.77;100.00
58761;BME280;44529;47.464;19.014;2022-11-15T13:09:50;100217.47;;;7.79;100.00
58761;BME280;44529;47.464;19.014;2022-11-15T13:16:01;100230.66;;;7.80;100.00
58761;BME280;44529;47.464;19.014;2022-11-15T13:19:04;100218.62;;;7.92;100.00
58761;BME280;44529;47.464;19.014;2022-11-15T13:22:09;100221.91;;;7.88;100.00
58761;BME280;44529;47.464;19.014;2022-11-15T13:26:05;100225.09;;;7.91;100.00
58761;BME280;44529;47.464;19.014;2022-11-15T13:29:17;100207.84;;;7.92;100.00
58761;BME280;44529;47.464;19.014;2022-11-15T13:32:21;100207.84;;;7.92;100.00
58761;BME280;44529;47.464;19.014;2022-11-15T13:35:26;100203.47;;;7.96;100.00
58761;BME280;44529;47.464;19.014;2022-11-15T13:38:31;100200.06;;;7.90;100.00
58761;BME280;44529;47.464;19.014;2022-11-15T13:41:36;100200.88;;;7.91;100.00
58761;BME280;44529;47.464;19.014;2022-11-15T13:44:59;100187.41;;;7.91;100.00
58761;BME280;44529;47.464;19.014;2022-11-15T13:48:02;100178.66;;;7.99;100.00
58761;BME280;44529;47.464;19.014;2022-11-15T13:51:09;100171.09;;;8.01;100.00
58761;BME280;44529;47.464;19.014;2022-11-15T13:57:50;100176.06;;;7.94;100.00
58761;BME280;44529;47.464;19.014;2022-11-15T14:01:04;100172.72;;;7.83;100.00
58761;BME280;44529;47.464;19.014;2022-11-15T14:04:11;100172.53;;;7.79;100.00
58761;BME280;44529;47.464;19.014;2022-11-15T14:07:23;100170.34;;;7.81;100.00
58761;BME280;44529;47.464;19.014;2022-11-15T14:10:30;100165.44;;;7.83;100.00
58761;BME280;44529;47.464;19.014;2022-11-15T14:13:32;100160.94;;;7.79;100.00
58761;BME280;44529;47.464;19.014;2022-11-15T14:16:36;100172.09;;;7.72;100.00
58761;BME280;44529;47.464;19.014;2022-11-15T14:19:39;100169.41;;;7.72;100.00
58761;BME280;44529;47.464;19.014;2022-11-15T14:22:54;100149.88;;;7.67;100.00
58761;BME280;44529;47.464;19.014;2022-11-15T14:25:58;100152.94;;;7.60;100.00
58761;BME280;44529;47.464;19.014;2022-11-15T14:29:23;100149.94;;;7.62;100.00
58761;BME280;44529;47.464;19.014;2022-11-15T14:32:28;100144.69;;;7.70;100.00
58761;BME280;44529;47.464;19.014;2022-11-15T14:35:31;100145.47;;;7.71;100.00
58761;BME280;44529;47.464;19.014;2022-11-15T14:38:33;100129.41;;;7.66;100.00
58761;BME280;44529;47.464;19.014;2022-11-15T14:41:37;100136.50;;;7.62;100.00
58761;BME280;44529;47.464;19.014;2022-11-15T14:44:40;100128.13;;;7.63;100.00
58761;BME280;44529;47.464;19.014;2022-11-15T14:47:47;100129.22;;;7.62;100.00
58761;BME280;44529;47.464;19.014;2022-11-15T14:50:50;100121.09;;;7.48;100.00
58761;BME280;44529;47.464;19.014;2022-11-15T14:53:52;100120.00;;;7.49;100.00
58761;BME280;44529;47.464;19.014;2022-11-15T14:56:55;100125.31;;;7.54;100.00
58761;BME280;44529;47.464;19.014;2022-11-15T14:59:58;100117.00;;;7.51;100.00
58761;BME280;44529;47.464;19.014;2022-11-15T15:03:12;100116.72;;;7.52;100.00
58761;BME280;44529;47.464;19.014;2022-11-15T15:06:15;100112.91;;;7.53;100.00
58761;BME280;44529;47.464;19.014;2022-11-15T15:09:19;100111.94;;;7.49;100.00
58761;BME280;44529;47.464;19.014;2022-11-15T15:12:23;100114.03;;;7.52;100.00
58761;BME280;44529;47.464;19.014;2022-11-15T15:15:36;100114.25;;;7.56;100.00
58761;BME280;44529;47.464;19.014;2022-11-15T15:18:39;100109.16;;;7.54;100.00
58761;BME280;44529;47.464;19.014;2022-11-15T15:21:41;100100.88;;;7.51;100.00
58761;BME280;44529;47.464;19.014;2022-11-15T15:24:44;100095.50;;;7.51;100.00
58761;BME280;44529;47.464;19.014;2022-11-15T15:27:47;100097.69;;;7.49;100.00
58761;BME280;44529;47.464;19.014;2022-11-15T15:30:49;100109.03;;;7.46;100.00
58761;BME280;44529;47.464;19.014;2022-11-15T15:33:51;100101.47;;;7.48;100.00
58761;BME280;44529;47.464;19.014;2022-11-15T15:37:32;100105.22;;;7.47;100.00
58761;BME280;44529;47.464;19.014;2022-11-15T15:40:38;100115.78;;;7.43;100.00
58761;BME280;44529;47.464;19.014;2022-11-15T15:43:41;100116.22;;;7.50;100.00
58761;BME280;44529;47.464;19.014;2022-11-15T15:46:43;100109.75;;;7.51;100.00
58761;BME280;44529;47.464;19.014;2022-11-15T15:49:46;100107.75;;;7.57;100.00
58761;BME280;44529;47.464;19.014;2022-11-15T15:52:50;100107.84;;;7.52;100.00
58761;BME280;44529;47.464;19.014;2022-11-15T15:55:53;100098.69;;;7.53;100.00
58761;BME280;44529;47.464;19.014;2022-11-15T15:58:55;100089.31;;;7.50;100.00
58761;BME280;44529;47.464;19.014;2022-11-15T16:01:58;100097.09;;;7.52;100.00
58761;BME280;44529;47.464;19.014;2022-11-15T16:05:00;100098.78;;;7.48;100.00
58761;BME280;44529;47.464;19.014;2022-11-15T16:08:03;100090.72;;;7.48;100.00
58761;BME280;44529;47.464;19.014;2022-11-15T16:11:06;100091.78;;;7.47;100.00
58761;BME280;44529;47.464;19.014;2022-11-15T16:14:09;100099.97;;;7.42;100.00
58761;BME280;44529;47.464;19.014;2022-11-15T16:17:17;100101.47;;;7.48;100.00
58761;BME280;44529;47.464;19.014;2022-11-15T16:20:39;100097.87;;;7.52;100.00
58761;BME280;44529;47.464;19.014;2022-11-15T16:23:44;100095.41;;;7.56;100.00
58761;BME280;44529;47.464;19.014;2022-11-15T16:26:47;100092.22;;;7.54;100.00
58761;BME280;44529;47.464;19.014;2022-11-15T16:29:49;100081.53;;;7.49;100.00
58761;BME280;44529;47.464;19.014;2022-11-15T16:32:52;100080.72;;;7.35;100.00
58761;BME280;44529;47.464;19.014;2022-11-15T16:35:56;100083.09;;;7.36;100.00
58761;BME280;44529;47.464;19.014;2022-11-15T16:38:59;100086.28;;;7.38;100.00
58761;BME280;44529;47.464;19.014;2022-11-15T16:42:02;100082.88;;;7.32;100.00
58761;BME280;44529;47.464;19.014;2022-11-15T16:45:04;100077.66;;;7.41;100.00
58761;BME280;44529;47.464;19.014;2022-11-15T16:48:20;100074.66;;;7.43;100.00
58761;BME280;44529;47.464;19.014;2022-11-15T16:51:23;100073.84;;;7.42;100.00
58761;BME280;44529;47.464;19.014;2022-11-15T16:54:25;100066.34;;;7.39;100.00
58761;BME280;44529;47.464;19.014;2022-11-15T16:57:28;100063.59;;;7.44;100.00
58761;BME280;44529;47.464;19.014;2022-11-15T17:00:30;100066.12;;;7.54;100.00
58761;BME280;44529;47.464;19.014;2022-11-15T17:03:32;100062.81;;;7.57;100.00
58761;BME280;44529;47.464;19.014;2022-11-15T17:06:35;100063.13;;;7.56;100.00
58761;BME280;44529;47.464;19.014;2022-11-15T17:09:37;100060.44;;;7.56;100.00
58761;BME280;44529;47.464;19.014;2022-11-15T17:12:39;100054.75;;;7.57;100.00
58761;BME280;44529;47.464;19.014;2022-11-15T17:15:42;100060.34;;;7.61;100.00
58761;BME280;44529;47.464;19.014;2022-11-15T17:18:44;100062.03;;;7.57;100.00
58761;BME280;44529;47.464;19.014;2022-11-15T17:21:51;100056.94;;;7.55;100.00
58761;BME280;44529;47.464;19.014;2022-11-15T17:24:55;100047.66;;;7.48;100.00
58761;BME280;44529;47.464;19.014;2022-11-15T17:27:57;100052.53;;;7.46;100.00
58761;BME280;44529;47.464;19.014;2022-11-15T17:31:00;100049.34;;;7.44;100.00
58761;BME280;44529;47.464;19.014;2022-11-15T17:34:03;100045.25;;;7.46;100.00
58761;BME280;44529;47.464;19.014;2022-11-15T17:37:06;100043.16;;;7.43;100.00
58761;BME280;44529;47.464;19.014;2022-11-15T17:40:09;100036.50;;;7.41;100.00
58761;BME280;44529;47.464;19.014;2022-11-15T17:43:11;100036.69;;;7.44;100.00
58761;BME280;44529;47.464;19.014;2022-11-15T17:46:16;100029.12;;;7.46;100.00
58761;BME280;44529;47.464;19.014;2022-11-15T17:49:18;100022.03;;;7.37;100.00
58761;BME280;44529;47.464;19.014;2022-11-15T17:52:21;100025.22;;;7.39;100.00
58761;BME280;44529;47.464;19.014;2022-11-15T17:55:23;100010.66;;;7.40;100.00
58761;BME280;44529;47.464;19.014;2022-11-15T17:58:25;100001.00;;;7.39;100.00
58761;BME280;44529;47.464;19.014;2022-11-15T18:01:30;100001.38;;;7.32;100.00
58761;BME280;44529;47.464;19.014;2022-11-15T18:04:33;100002.78;;;7.29;100.00